Kidsgrove, United Kingdom
Current Conditions -  °F | °C
As of 4:20 PM on Saturday 22 Nov 2014 (Local Time) from EGCC Reporting Station
Broken Clouds Broken Clouds  
Wind Chill: 54°   Ceiling: 3800
Heat Index: 54°   Visibility: 6mi
Dew Point: 48°   Wind: 7mph
Humidity: 82%   Direction: 170°S
Pressure: 29.88"   Gusts: NA
Location:  53.09°N, 2.24°W
Report Text: EGCC 221620Z 17006KT 9999 FEW020 BKN038 12/09 Q1012 NOSIG
Loading
Personal Weather Stations






























Interactive Weather Map New forecast layout! Learn more

10-Day Weather Forecast

Advertisements
Track Severe Weather on mobile